Terminal Aerodrome Forecast
Issued by NWS Jackson, MS

Home | Current Version | Previous Version | Text Only | Print | Product List | Glossary On
Versions: 1 2 3 4 5 6 7 8 9 10 11 12 13
582
FTUS44 KJAN 260539
TAFGWO
TAF
KGWO 260539Z 2606/2706 17004KT P6SM FEW250
     FM260800 17004KT 4SM BR FEW250
     FM261000 17003KT 1SM BR BKN006
     FM261400 20004KT 6SM BR BKN015 BKN250
     FM261600 21006KT P6SM FEW090 SCT250=

USA.gov is the U.S. government's official web portal to all federal, state and local government web resources and services.